• Join FlightAware (Why Join?)
  • Login
  • US Flag 
01:27PM EST


 

Airport Tracker/Info


-or-


 

Live Flight TrackerFlight Track Log ✈ SKW6335 ✈ 20-Jun-2013 ✈ KSAN - KLAX

Flight Track Log - Related Links

Times and Time Zones

All times are in EDT time to prevent confusion due to time zone crossing. See the SKW6335 flight status page for this flight to view local times or setup timezone preferences in your user account.

Time Position Orientation Groundspeed Altitude Reporting Facility
EDT Latitude Longitude Course Direction KTS MPH feet Rate Location/Type
07:05PM 32.8000 -117.3000 308° West 196 226 3,500  Level Southern California TRACON
07:06PM 32.8333 -117.3500 308° West 212 244 5,000 1,380 Climbing Southern California TRACON
07:07PM 32.8846 -117.3346 320° Northwest  Level FlightAware Approximate
07:07PM 32.8667 -117.4000 308° West 218 251 6,400  Level Southern California TRACON
07:08PM 32.9353 -117.3853 320° Northwest  Level FlightAware Approximate
07:08PM 32.9167 -117.4667 312° West 222 255 7,600  Level Southern California TRACON
07:09PM 32.9862 -117.4360 320° Northwest  Level FlightAware Approximate
07:09PM 32.9500 -117.5167 308° West 238 274 8,000  Level Southern California TRACON
07:10PM 33.0322 -117.4820 320° Northwest  Level FlightAware Approximate
07:10PM 33.0000 -117.5833 312° West 255 293 8,000  Level Southern California TRACON
07:11PM 33.0186 -117.6122 308° West 254 292 8,000  Level Los Angeles Center
07:12PM 33.0647 -117.6753 311° West 255 293 8,000  Level Los Angeles Center
07:13PM 33.1242 -117.7178 329° Northwest 261 300 8,000  Level Los Angeles Center
07:14PM 33.2031 -117.7586 337° Northwest 261 300 8,000  Level Los Angeles Center
07:15PM 33.2686 -117.7917 337° Northwest 257 296 8,000  Level Los Angeles Center
07:16PM 33.3344 -117.8250 337° Northwest 257 296 8,000  Level Los Angeles Center
07:17PM 33.4006 -117.8575 338° Northwest 257 296 8,000  Level Los Angeles Center
07:18PM 33.4669 -117.8925 336° Northwest 259 298 8,000  Level Los Angeles Center
07:19PM 33.5328 -117.9261 337° Northwest 259 298 8,000 -300 Level Los Angeles Center
07:20PM 33.6133 -117.9669 337° Northwest 262 302 7,400 -540 Descending Los Angeles Center
07:21PM 33.6842 -118.0019 338° Northwest 273 314 7,000 -240 Descending Los Angeles Center
07:22PM 33.7350 -118.0275 337° Northwest 261 300 7,000  Level Los Angeles Center
07:23PM 33.8072 -118.0603 339° North 237 273 7,000  Level Los Angeles Center
07:24PM 33.8772 -118.0531 North 213 245 7,000 -600 Level Los Angeles Center
07:25PM 33.9328 -118.0486 North 215 247 5,800 -960 Descending Los Angeles Center
07:26PM 33.9667 -118.1000 308° West 193 222 5,000 -720 Descending Southern California TRACON
07:27PM 33.9600 -118.1586 262° West 195 224 4,400 -840 Descending Los Angeles Center
07:29PM 33.9533 -118.2206 263° West 191 220 3,300 -1,080 Descending Los Angeles Center